Wachtebeke, Belgium
Current Conditions -  °F | °C
As of 9:25 AM on Friday 28 Nov 2014 (Local Time) from EHFS Reporting Station
Clear Clear  
Wind Chill: 39°   Ceiling: Unl
Heat Index: 46°   Visibility: 5mi
Dew Point: 45°   Wind: 17mph
Humidity: 93%   Direction: 90°E
Pressure: 29.68"   Gusts: NA
Location:  51.17°N, 3.87°E
Report Text: EHFS 280825Z AUTO 09015KT 8000 NSC 08/07 Q1005
Loading
Personal Weather Stations






























Interactive Weather Map New forecast layout! Learn more

10-Day Weather Forecast

Advertisements
Track Severe Weather on mobile